sensor_id;sensor_type;location;lat;lon;timestamp;pressure;altitude;pressure_sealevel;temperature;humidity
67099;BME280;54288;53.046;5.668;2022-09-25T00:04:22;101822.88;;;10.53;97.35
67099;BME280;54288;53.046;5.668;2022-09-25T00:07:02;101831.59;;;10.58;98.60
67099;BME280;54288;53.046;5.668;2022-09-25T00:12:43;101817.66;;;10.55;96.62
67099;BME280;54288;53.046;5.668;2022-09-25T00:34:02;101818.59;;;10.39;96.65
67099;BME280;54288;53.046;5.668;2022-09-25T06:59:13;101775.63;;;11.81;90.35
67099;BME280;54288;53.046;5.668;2022-09-25T07:01:39;101767.63;;;11.90;90.06
67099;BME280;54288;53.046;5.668;2022-09-25T07:04:04;101759.69;;;11.96;90.35
67099;BME280;54288;53.046;5.668;2022-09-25T07:06:30;101768.16;;;12.19;90.52
67099;BME280;54288;53.046;5.668;2022-09-25T07:08:58;101761.72;;;12.44;89.40
67099;BME280;54288;53.046;5.668;2022-09-25T07:11:26;101746.59;;;12.59;88.61
67099;BME280;54288;53.046;5.668;2022-09-25T07:13:52;101780.97;;;13.05;87.62
67099;BME280;54288;53.046;5.668;2022-09-25T07:16:24;101780.38;;;13.42;86.03
67099;BME280;54288;53.046;5.668;2022-09-25T07:18:53;101785.56;;;13.92;83.67
67099;BME280;54288;53.046;5.668;2022-09-25T07:21:20;101790.91;;;13.89;83.31
67099;BME280;54288;53.046;5.668;2022-09-25T07:23:48;101786.44;;;13.93;83.56
67099;BME280;54288;53.046;5.668;2022-09-25T07:26:18;101790.66;;;14.03;83.19
67099;BME280;54288;53.046;5.668;2022-09-25T07:28:55;101779.53;;;14.31;83.24
67099;BME280;54288;53.046;5.668;2022-09-25T07:31:24;101788.88;;;14.47;82.07
67099;BME280;54288;53.046;5.668;2022-09-25T07:33:50;101789.56;;;14.55;81.83
67099;BME280;54288;53.046;5.668;2022-09-25T07:36:18;101788.28;;;14.73;81.92
67099;BME280;54288;53.046;5.668;2022-09-25T07:38:48;101779.59;;;14.69;81.49
67099;BME280;54288;53.046;5.668;2022-09-25T07:41:15;101776.03;;;14.72;81.38
67099;BME280;54288;53.046;5.668;2022-09-25T07:43:42;101782.75;;;14.85;81.84
67099;BME280;54288;53.046;5.668;2022-09-25T07:46:08;101776.84;;;15.10;80.37
67099;BME280;54288;53.046;5.668;2022-09-25T07:48:34;101788.66;;;15.31;80.59
67099;BME280;54288;53.046;5.668;2022-09-25T07:51:05;101790.25;;;15.38;80.44
67099;BME280;54288;53.046;5.668;2022-09-25T07:53:31;101781.06;;;15.54;79.50
67099;BME280;54288;53.046;5.668;2022-09-25T07:56:00;101790.19;;;15.74;79.57
67099;BME280;54288;53.046;5.668;2022-09-25T07:58:27;101777.22;;;15.67;76.35
67099;BME280;54288;53.046;5.668;2022-09-25T08:00:58;101768.53;;;15.62;77.21
67099;BME280;54288;53.046;5.668;2022-09-25T08:03:24;101765.22;;;15.86;76.37
67099;BME280;54288;53.046;5.668;2022-09-25T08:06:03;101779.47;;;16.11;75.70
67099;BME280;54288;53.046;5.668;2022-09-25T08:08:31;101778.28;;;16.22;76.15
67099;BME280;54288;53.046;5.668;2022-09-25T08:11:02;101774.88;;;16.49;74.44
67099;BME280;54288;53.046;5.668;2022-09-25T08:13:31;101765.81;;;16.85;72.52
67099;BME280;54288;53.046;5.668;2022-09-25T08:15:58;101774.78;;;17.07;71.80
67099;BME280;54288;53.046;5.668;2022-09-25T08:18:23;101780.69;;;17.15;69.14
67099;BME280;54288;53.046;5.668;2022-09-25T08:20:49;101782.25;;;16.67;72.71
67099;BME280;54288;53.046;5.668;2022-09-25T08:23:15;101758.22;;;16.15;71.88
67099;BME280;54288;53.046;5.668;2022-09-25T08:25:40;101784.19;;;16.00;73.63
67099;BME280;54288;53.046;5.668;2022-09-25T08:28:06;101785.78;;;15.75;74.83
67099;BME280;54288;53.046;5.668;2022-09-25T08:30:32;101789.56;;;15.30;78.52
67099;BME280;54288;53.046;5.668;2022-09-25T08:32:57;101787.97;;;14.88;82.80
67099;BME280;54288;53.046;5.668;2022-09-25T08:35:23;101792.56;;;14.39;84.43
67099;BME280;54288;53.046;5.668;2022-09-25T08:37:49;101811.41;;;14.19;86.33
67099;BME280;54288;53.046;5.668;2022-09-25T08:40:16;101820.59;;;13.96;88.86
67099;BME280;54288;53.046;5.668;2022-09-25T08:42:46;101811.28;;;13.80;88.82
67099;BME280;54288;53.046;5.668;2022-09-25T08:45:35;101818.38;;;13.75;88.25
67099;BME280;54288;53.046;5.668;2022-09-25T08:48:33;101809.81;;;13.64;89.13
67099;BME280;54288;53.046;5.668;2022-09-25T08:51:20;101801.16;;;13.56;91.07
67099;BME280;54288;53.046;5.668;2022-09-25T08:53:46;101793.34;;;13.53;91.33
67099;BME280;54288;53.046;5.668;2022-09-25T08:56:13;101796.06;;;13.47;92.10
67099;BME280;54288;53.046;5.668;2022-09-25T09:04:16;101794.72;;;13.22;90.17
67099;BME280;54288;53.046;5.668;2022-09-25T09:06:47;101797.31;;;13.26;90.75
67099;BME280;54288;53.046;5.668;2022-09-25T09:09:26;101794.81;;;13.16;91.34
67099;BME280;54288;53.046;5.668;2022-09-25T09:12:18;101802.69;;;13.19;92.21
67099;BME280;54288;53.046;5.668;2022-09-25T09:14:53;101787.16;;;13.54;88.24
67099;BME280;54288;53.046;5.668;2022-09-25T09:17:26;101793.72;;;14.26;88.95
67099;BME280;54288;53.046;5.668;2022-09-25T09:20:16;101780.31;;;15.12;85.64
67099;BME280;54288;53.046;5.668;2022-09-25T09:22:51;101793.78;;;15.72;80.53
67099;BME280;54288;53.046;5.668;2022-09-25T09:25:34;101786.53;;;15.80;83.76
67099;BME280;54288;53.046;5.668;2022-09-25T09:28:35;101775.88;;;16.45;81.29
67099;BME280;54288;53.046;5.668;2022-09-25T09:31:23;101766.38;;;16.95;78.40
67099;BME280;54288;53.046;5.668;2022-09-25T09:36:52;101784.16;;;17.94;74.92
67099;BME280;54288;53.046;5.668;2022-09-25T09:45:05;101791.88;;;15.77;76.03
67099;BME280;54288;53.046;5.668;2022-09-25T09:47:53;101781.00;;;15.20;78.74
67099;BME280;54288;53.046;5.668;2022-09-25T09:50:39;101788.59;;;14.99;77.79
67099;BME280;54288;53.046;5.668;2022-09-25T09:53:24;101771.56;;;14.74;79.12
67099;BME280;54288;53.046;5.668;2022-09-25T09:56:00;101790.28;;;14.62;79.54
67099;BME280;54288;53.046;5.668;2022-09-25T09:58:42;101805.47;;;14.51;80.03
67099;BME280;54288;53.046;5.668;2022-09-25T10:01:12;101777.75;;;14.33;81.55
67099;BME280;54288;53.046;5.668;2022-09-25T10:03:40;101785.88;;;14.21;82.54
67099;BME280;54288;53.046;5.668;2022-09-25T10:06:11;101780.00;;;14.07;85.68
67099;BME280;54288;53.046;5.668;2022-09-25T10:08:39;101758.97;;;14.06;86.82
67099;BME280;54288;53.046;5.668;2022-09-25T10:11:15;101772.78;;;14.20;86.19
67099;BME280;54288;53.046;5.668;2022-09-25T10:13:43;101769.09;;;14.27;88.24
67099;BME280;54288;53.046;5.668;2022-09-25T10:16:16;101772.16;;;14.48;85.33
67099;BME280;54288;53.046;5.668;2022-09-25T10:24:09;101774.75;;;15.59;80.05
67099;BME280;54288;53.046;5.668;2022-09-25T10:26:37;101777.19;;;15.99;72.24
67099;BME280;54288;53.046;5.668;2022-09-25T10:29:26;101770.00;;;15.72;77.53
67099;BME280;54288;53.046;5.668;2022-09-25T10:32:03;101769.47;;;15.59;73.68
67099;BME280;54288;53.046;5.668;2022-09-25T10:34:30;101759.28;;;15.46;76.49
67099;BME280;54288;53.046;5.668;2022-09-25T10:36:56;101762.69;;;15.49;76.96
67099;BME280;54288;53.046;5.668;2022-09-25T10:39:32;101748.34;;;15.59;73.88
67099;BME280;54288;53.046;5.668;2022-09-25T10:41:59;101754.84;;;15.80;71.80
67099;BME280;54288;53.046;5.668;2022-09-25T10:44:32;101749.78;;;16.03;78.53
67099;BME280;54288;53.046;5.668;2022-09-25T10:52:48;101736.69;;;17.88;66.83
67099;BME280;54288;53.046;5.668;2022-09-25T10:55:32;101745.63;;;17.35;67.94
67099;BME280;54288;53.046;5.668;2022-09-25T10:58:51;101749.97;;;16.84;73.81
67099;BME280;54288;53.046;5.668;2022-09-25T11:00:56;101742.44;;;16.12;74.94
67099;BME280;54288;53.046;5.668;2022-09-25T11:03:50;101743.34;;;15.81;77.06
67099;BME280;54288;53.046;5.668;2022-09-25T11:06:29;101740.19;;;15.36;79.64
67099;BME280;54288;53.046;5.668;2022-09-25T11:11:39;101733.09;;;15.37;79.04
67099;BME280;54288;53.046;5.668;2022-09-25T11:14:19;101724.19;;;16.34;76.96
67099;BME280;54288;53.046;5.668;2022-09-25T11:16:53;101727.28;;;17.03;73.49
67099;BME280;54288;53.046;5.668;2022-09-25T11:19:34;101728.53;;;17.45;70.11
67099;BME280;54288;53.046;5.668;2022-09-25T11:38:36;101712.41;;;15.20;68.89
67099;BME280;54288;53.046;5.668;2022-09-25T11:41:37;101718.28;;;15.33;69.65
67099;BME280;54288;53.046;5.668;2022-09-25T11:44:12;101713.69;;;16.02;64.83
67099;BME280;54288;53.046;5.668;2022-09-25T11:49:29;101709.06;;;15.79;68.75
67099;BME280;54288;53.046;5.668;2022-09-25T12:18:21;101670.69;;;17.07;61.49
67099;BME280;54288;53.046;5.668;2022-09-25T12:20:59;101678.94;;;17.24;60.46
67099;BME280;54288;53.046;5.668;2022-09-25T12:23:31;101669.63;;;17.37;64.60
67099;BME280;54288;53.046;5.668;2022-09-25T12:26:30;101667.00;;;17.61;61.71
67099;BME280;54288;53.046;5.668;2022-09-25T12:39:58;101655.56;;;17.10;62.43
67099;BME280;54288;53.046;5.668;2022-09-25T12:43:01;101661.53;;;16.91;62.03
67099;BME280;54288;53.046;5.668;2022-09-25T12:45:37;101663.28;;;16.92;61.83
67099;BME280;54288;53.046;5.668;2022-09-25T12:53:30;101659.84;;;17.40;61.28
67099;BME280;54288;53.046;5.668;2022-09-25T12:56:21;101654.13;;;17.26;61.33
67099;BME280;54288;53.046;5.668;2022-09-25T12:59:03;101650.31;;;17.09;60.76
67099;BME280;54288;53.046;5.668;2022-09-25T13:01:54;101656.66;;;17.05;61.21
67099;BME280;54288;53.046;5.668;2022-09-25T13:04:48;101642.16;;;17.41;63.54
67099;BME280;54288;53.046;5.668;2022-09-25T13:07:36;101640.28;;;17.44;61.25
67099;BME280;54288;53.046;5.668;2022-09-25T13:12:47;101638.63;;;17.16;61.46
67099;BME280;54288;53.046;5.668;2022-09-25T13:15:18;101647.63;;;17.10;62.13
67099;BME280;54288;53.046;5.668;2022-09-25T13:17:48;101637.44;;;17.00;64.94
67099;BME280;54288;53.046;5.668;2022-09-25T13:25:43;101616.88;;;17.57;63.59
67099;BME280;54288;53.046;5.668;2022-09-25T13:28:21;101623.63;;;17.41;64.51
67099;BME280;54288;53.046;5.668;2022-09-25T13:31:24;101623.47;;;17.68;58.78
67099;BME280;54288;53.046;5.668;2022-09-25T13:39:03;101609.84;;;17.79;55.46
67099;BME280;54288;53.046;5.668;2022-09-25T13:42:23;101616.59;;;17.40;58.53
67099;BME280;54288;53.046;5.668;2022-09-25T13:44:50;101608.75;;;17.12;58.97
67099;BME280;54288;53.046;5.668;2022-09-25T13:49:54;101614.84;;;16.90;57.89
67099;BME280;54288;53.046;5.668;2022-09-25T14:00:20;101608.81;;;16.85;60.16
67099;BME280;54288;53.046;5.668;2022-09-25T14:02:47;101597.06;;;16.93;59.08
67099;BME280;54288;53.046;5.668;2022-09-25T14:05:19;101588.13;;;16.97;61.27
67099;BME280;54288;53.046;5.668;2022-09-25T14:07:50;101599.72;;;16.93;62.12
67099;BME280;54288;53.046;5.668;2022-09-25T14:10:21;101588.50;;;16.87;60.51
67099;BME280;54288;53.046;5.668;2022-09-25T14:12:48;101582.16;;;16.91;59.54
67099;BME280;54288;53.046;5.668;2022-09-25T14:15:22;101594.88;;;16.80;60.71
67099;BME280;54288;53.046;5.668;2022-09-25T14:17:52;101589.88;;;16.72;60.95
67099;BME280;54288;53.046;5.668;2022-09-25T14:20:46;101593.69;;;16.64;61.82
67099;BME280;54288;53.046;5.668;2022-09-25T14:25:39;101579.63;;;16.36;63.76
67099;BME280;54288;53.046;5.668;2022-09-25T14:28:22;101590.06;;;16.40;62.74
67099;BME280;54288;53.046;5.668;2022-09-25T14:44:20;101575.19;;;16.64;60.82
67099;BME280;54288;53.046;5.668;2022-09-25T14:46:53;101559.09;;;16.70;60.92
67099;BME280;54288;53.046;5.668;2022-09-25T14:49:39;101567.75;;;16.99;62.76
67099;BME280;54288;53.046;5.668;2022-09-25T14:52:22;101563.31;;;17.00;63.45
67099;BME280;54288;53.046;5.668;2022-09-25T14:54:55;101534.81;;;16.83;63.66
67099;BME280;54288;53.046;5.668;2022-09-25T14:57:29;101550.88;;;16.77;65.25
67099;BME280;54288;53.046;5.668;2022-09-25T15:00:00;101550.63;;;16.85;65.24
67099;BME280;54288;53.046;5.668;2022-09-25T15:02:31;101551.66;;;16.81;63.49
67099;BME280;54288;53.046;5.668;2022-09-25T15:07:43;101546.91;;;16.90;64.19
67099;BME280;54288;53.046;5.668;2022-09-25T15:15:38;101550.88;;;15.98;65.79
67099;BME280;54288;53.046;5.668;2022-09-25T15:18:12;101544.66;;;15.73;66.67
67099;BME280;54288;53.046;5.668;2022-09-25T15:20:45;101551.53;;;15.77;68.63
67099;BME280;54288;53.046;5.668;2022-09-25T15:23:21;101550.13;;;15.67;68.46
67099;BME280;54288;53.046;5.668;2022-09-25T15:25:51;101550.25;;;15.61;68.37
67099;BME280;54288;53.046;5.668;2022-09-25T15:28:22;101540.41;;;15.67;68.83
67099;BME280;54288;53.046;5.668;2022-09-25T15:30:58;101520.22;;;15.65;66.85
67099;BME280;54288;53.046;5.668;2022-09-25T15:33:29;101528.69;;;15.76;67.32
67099;BME280;54288;53.046;5.668;2022-09-25T15:35:58;101539.50;;;15.96;66.47
67099;BME280;54288;53.046;5.668;2022-09-25T15:38:32;101542.91;;;15.99;67.45
67099;BME280;54288;53.046;5.668;2022-09-25T15:40:59;101543.97;;;15.94;67.75
67099;BME280;54288;53.046;5.668;2022-09-25T15:43:25;101514.19;;;15.61;67.62
67099;BME280;54288;53.046;5.668;2022-09-25T15:45:55;101534.53;;;15.58;69.97
67099;BME280;54288;53.046;5.668;2022-09-25T15:48:28;101533.00;;;15.51;70.17
67099;BME280;54288;53.046;5.668;2022-09-25T15:51:19;101526.06;;;15.47;70.38
67099;BME280;54288;53.046;5.668;2022-09-25T15:53:52;101531.41;;;15.44;68.77
67099;BME280;54288;53.046;5.668;2022-09-25T15:56:26;101528.66;;;15.48;68.60
67099;BME280;54288;53.046;5.668;2022-09-25T15:59:03;101529.44;;;15.52;68.36
67099;BME280;54288;53.046;5.668;2022-09-25T16:01:33;101503.56;;;15.35;67.19
67099;BME280;54288;53.046;5.668;2022-09-25T16:04:20;101523.81;;;15.33;65.82
67099;BME280;54288;53.046;5.668;2022-09-25T16:07:34;101531.34;;;15.15;68.01
67099;BME280;54288;53.046;5.668;2022-09-25T16:10:32;101525.03;;;14.90;68.35
67099;BME280;54288;53.046;5.668;2022-09-25T16:12:58;101532.47;;;14.76;70.17
67099;BME280;54288;53.046;5.668;2022-09-25T16:22:51;101531.81;;;14.33;73.09
67099;BME280;54288;53.046;5.668;2022-09-25T16:25:24;101530.28;;;14.24;73.37
67099;BME280;54288;53.046;5.668;2022-09-25T16:27:53;101526.22;;;14.10;73.55
67099;BME280;54288;53.046;5.668;2022-09-25T16:30:22;101512.44;;;13.99;73.17
67099;BME280;54288;53.046;5.668;2022-09-25T16:32:52;101521.53;;;13.86;73.03
67099;BME280;54288;53.046;5.668;2022-09-25T16:35:34;101514.59;;;13.82;73.73
67099;BME280;54288;53.046;5.668;2022-09-25T16:38:01;101516.56;;;13.74;74.08
67099;BME280;54288;53.046;5.668;2022-09-25T16:40:28;101508.94;;;13.62;75.00
67099;BME280;54288;53.046;5.668;2022-09-25T16:42:59;101510.59;;;13.64;76.79
67099;BME280;54288;53.046;5.668;2022-09-25T16:45:33;101500.22;;;13.58;75.17
67099;BME280;54288;53.046;5.668;2022-09-25T16:48:56;101503.19;;;13.45;75.63
67099;BME280;54288;53.046;5.668;2022-09-25T16:51:21;101497.06;;;13.43;76.32
67099;BME280;54288;53.046;5.668;2022-09-25T16:53:49;101485.00;;;13.33;75.72
67099;BME280;54288;53.046;5.668;2022-09-25T16:56:22;101485.06;;;13.30;76.51
67099;BME280;54288;53.046;5.668;2022-09-25T16:58:49;101485.06;;;13.30;77.49
67099;BME280;54288;53.046;5.668;2022-09-25T17:01:15;101488.56;;;13.30;77.44
67099;BME280;54288;53.046;5.668;2022-09-25T17:03:42;101477.22;;;13.27;77.02
67099;BME280;54288;53.046;5.668;2022-09-25T17:06:17;101474.72;;;13.22;78.34
67099;BME280;54288;53.046;5.668;2022-09-25T17:08:43;101470.38;;;13.20;78.09
67099;BME280;54288;53.046;5.668;2022-09-25T17:11:11;101459.94;;;13.17;79.75
67099;BME280;54288;53.046;5.668;2022-09-25T17:13:37;101459.19;;;13.10;79.63
67099;BME280;54288;53.046;5.668;2022-09-25T17:16:04;101466.34;;;13.04;79.41
67099;BME280;54288;53.046;5.668;2022-09-25T17:18:30;101460.25;;;13.02;78.96
67099;BME280;54288;53.046;5.668;2022-09-25T17:20:58;101446.44;;;12.89;79.90
67099;BME280;54288;53.046;5.668;2022-09-25T17:23:25;101462.19;;;12.91;78.96
67099;BME280;54288;53.046;5.668;2022-09-25T17:26:05;101460.47;;;12.90;79.15
67099;BME280;54288;53.046;5.668;2022-09-25T17:28:36;101447.47;;;12.82;80.14
67099;BME280;54288;53.046;5.668;2022-09-25T17:31:02;101457.09;;;12.82;80.71
67099;BME280;54288;53.046;5.668;2022-09-25T17:33:29;101451.97;;;12.76;81.80
67099;BME280;54288;53.046;5.668;2022-09-25T17:36:02;101446.84;;;12.70;81.19
67099;BME280;54288;53.046;5.668;2022-09-25T17:38:28;101450.50;;;12.63;81.33
67099;BME280;54288;53.046;5.668;2022-09-25T17:40:57;101449.72;;;12.58;82.39
67099;BME280;54288;53.046;5.668;2022-09-25T17:43:24;101434.97;;;12.51;81.67
67099;BME280;54288;53.046;5.668;2022-09-25T17:45:55;101444.44;;;12.58;81.96
67099;BME280;54288;53.046;5.668;2022-09-25T17:48:23;101446.16;;;12.60;81.98
67099;BME280;54288;53.046;5.668;2022-09-25T17:50:51;101427.09;;;12.49;82.07
67099;BME280;54288;53.046;5.668;2022-09-25T17:53:19;101429.75;;;12.48;81.77
67099;BME280;54288;53.046;5.668;2022-09-25T17:55:46;101440.22;;;12.51;81.58
67099;BME280;54288;53.046;5.668;2022-09-25T17:58:13;101428.88;;;12.49;82.49
67099;BME280;54288;53.046;5.668;2022-09-25T18:00:39;101410.72;;;12.37;82.12
67099;BME280;54288;53.046;5.668;2022-09-25T18:03:05;101430.69;;;12.45;82.66
67099;BME280;54288;53.046;5.668;2022-09-25T18:05:30;101408.13;;;12.34;82.30
67099;BME280;54288;53.046;5.668;2022-09-25T18:07:57;101410.78;;;12.34;82.67
67099;BME280;54288;53.046;5.668;2022-09-25T18:10:24;101413.34;;;12.37;82.08
67099;BME280;54288;53.046;5.668;2022-09-25T18:12:56;101398.69;;;12.24;82.80
67099;BME280;54288;53.046;5.668;2022-09-25T18:15:26;101407.44;;;12.26;82.85
67099;BME280;54288;53.046;5.668;2022-09-25T18:17:53;101405.75;;;12.22;82.81
67099;BME280;54288;53.046;5.668;2022-09-25T18:20:18;101398.75;;;12.21;82.72
67099;BME280;54288;53.046;5.668;2022-09-25T18:23:28;101395.34;;;12.16;82.68
67099;BME280;54288;53.046;5.668;2022-09-25T18:25:59;101390.94;;;12.16;82.55
67099;BME280;54288;53.046;5.668;2022-09-25T18:28:26;101390.09;;;12.16;82.82
67099;BME280;54288;53.046;5.668;2022-09-25T18:30:54;101365.81;;;12.05;82.75
67099;BME280;54288;53.046;5.668;2022-09-25T18:33:23;101380.50;;;12.15;82.90
67099;BME280;54288;53.046;5.668;2022-09-25T18:35:50;101393.56;;;12.18;82.75
67099;BME280;54288;53.046;5.668;2022-09-25T18:38:16;101380.56;;;12.10;82.41
67099;BME280;54288;53.046;5.668;2022-09-25T18:40:42;101387.50;;;12.14;83.33
67099;BME280;54288;53.046;5.668;2022-09-25T18:43:08;101384.84;;;12.16;83.65
67099;BME280;54288;53.046;5.668;2022-09-25T18:45:34;101383.91;;;12.20;81.87
67099;BME280;54288;53.046;5.668;2022-09-25T18:48:00;101377.81;;;12.16;82.42
67099;BME280;54288;53.046;5.668;2022-09-25T18:50:27;101378.56;;;12.24;82.56
67099;BME280;54288;53.046;5.668;2022-09-25T18:52:53;101369.69;;;12.30;82.88
67099;BME280;54288;53.046;5.668;2022-09-25T18:55:19;101362.72;;;12.27;81.30
67099;BME280;54288;53.046;5.668;2022-09-25T18:57:45;101357.59;;;12.21;81.67
67099;BME280;54288;53.046;5.668;2022-09-25T19:00:10;101357.47;;;12.27;81.83
67099;BME280;54288;53.046;5.668;2022-09-25T19:02:36;101351.38;;;12.27;81.14
67099;BME280;54288;53.046;5.668;2022-09-25T19:05:07;101342.66;;;12.25;80.92
67099;BME280;54288;53.046;5.668;2022-09-25T19:07:35;101339.31;;;12.17;81.70
67099;BME280;54288;53.046;5.668;2022-09-25T19:10:01;101333.25;;;12.13;81.79
67099;BME280;54288;53.046;5.668;2022-09-25T19:12:32;101328.84;;;12.15;81.71
67099;BME280;54288;53.046;5.668;2022-09-25T19:14:58;101325.38;;;12.15;81.43
67099;BME280;54288;53.046;5.668;2022-09-25T19:17:24;101327.22;;;12.10;82.00
67099;BME280;54288;53.046;5.668;2022-09-25T19:19:50;101316.75;;;12.07;81.86
67099;BME280;54288;53.046;5.668;2022-09-25T19:22:17;101314.22;;;12.02;82.26
67099;BME280;54288;53.046;5.668;2022-09-25T19:24:44;101315.13;;;12.02;82.72
67099;BME280;54288;53.046;5.668;2022-09-25T19:27:11;101293.47;;;11.89;83.20
67099;BME280;54288;53.046;5.668;2022-09-25T19:29:39;101307.28;;;12.00;82.82
67099;BME280;54288;53.046;5.668;2022-09-25T19:32:06;101309.84;;;12.03;83.61
67099;BME280;54288;53.046;5.668;2022-09-25T19:34:33;101294.25;;;11.94;83.50
67099;BME280;54288;53.046;5.668;2022-09-25T19:37:00;101308.84;;;12.08;83.60
67099;BME280;54288;53.046;5.668;2022-09-25T19:39:27;101301.00;;;12.07;83.54
67099;BME280;54288;53.046;5.668;2022-09-25T19:41:53;101307.81;;;12.17;83.28
67099;BME280;54288;53.046;5.668;2022-09-25T19:44:20;101299.91;;;12.18;82.92
67099;BME280;54288;53.046;5.668;2022-09-25T19:46:46;101295.50;;;12.19;82.72
67099;BME280;54288;53.046;5.668;2022-09-25T19:49:15;101300.72;;;12.22;82.48
67099;BME280;54288;53.046;5.668;2022-09-25T19:51:41;101289.44;;;12.15;82.67
67099;BME280;54288;53.046;5.668;2022-09-25T19:54:10;101280.66;;;12.18;82.51
67099;BME280;54288;53.046;5.668;2022-09-25T19:56:38;101286.66;;;12.24;83.15
67099;BME280;54288;53.046;5.668;2022-09-25T19:59:23;101284.06;;;12.21;82.51
67099;BME280;54288;53.046;5.668;2022-09-25T20:01:48;101285.84;;;12.21;82.46
67099;BME280;54288;53.046;5.668;2022-09-25T20:04:14;101284.84;;;12.26;81.81
67099;BME280;54288;53.046;5.668;2022-09-25T20:06:39;101279.47;;;12.32;82.63
67099;BME280;54288;53.046;5.668;2022-09-25T20:09:06;101272.66;;;12.24;82.76
67099;BME280;54288;53.046;5.668;2022-09-25T20:11:33;101273.50;;;12.26;82.71
67099;BME280;54288;53.046;5.668;2022-09-25T20:14:01;101268.97;;;12.32;82.12
67099;BME280;54288;53.046;5.668;2022-09-25T20:16:28;101270.63;;;12.38;83.32
67099;BME280;54288;53.046;5.668;2022-09-25T20:18:56;101267.13;;;12.36;82.53
67099;BME280;54288;53.046;5.668;2022-09-25T20:21:24;101262.66;;;12.41;82.22
67099;BME280;54288;53.046;5.668;2022-09-25T20:23:52;101268.75;;;12.43;82.68
67099;BME280;54288;53.046;5.668;2022-09-25T20:26:18;101265.22;;;12.45;82.50
67099;BME280;54288;53.046;5.668;2022-09-25T20:28:45;101264.22;;;12.49;81.72
67099;BME280;54288;53.046;5.668;2022-09-25T20:31:13;101266.88;;;12.48;82.19
67099;BME280;54288;53.046;5.668;2022-09-25T20:33:40;101259.88;;;12.48;81.89
67099;BME280;54288;53.046;5.668;2022-09-25T20:36:11;101265.03;;;12.53;81.69
67099;BME280;54288;53.046;5.668;2022-09-25T20:38:37;101262.47;;;12.50;81.88
67099;BME280;54288;53.046;5.668;2022-09-25T20:41:06;101256.28;;;12.54;81.39
67099;BME280;54288;53.046;5.668;2022-09-25T20:43:32;101242.38;;;12.49;81.36
67099;BME280;54288;53.046;5.668;2022-09-25T20:46:04;101246.69;;;12.51;80.97
67099;BME280;54288;53.046;5.668;2022-09-25T20:48:33;101248.25;;;12.60;81.43
67099;BME280;54288;53.046;5.668;2022-09-25T20:51:06;101242.28;;;12.52;81.43
67099;BME280;54288;53.046;5.668;2022-09-25T20:53:32;101248.25;;;12.60;82.13
67099;BME280;54288;53.046;5.668;2022-09-25T20:56:13;101233.47;;;12.54;81.21
67099;BME280;54288;53.046;5.668;2022-09-25T20:58:40;101237.78;;;12.58;82.50
67099;BME280;54288;53.046;5.668;2022-09-25T21:01:12;101230.81;;;12.56;81.60
67099;BME280;54288;53.046;5.668;2022-09-25T21:03:41;101235.97;;;12.60;81.99
67099;BME280;54288;53.046;5.668;2022-09-25T21:06:12;101233.31;;;12.62;82.17
67099;BME280;54288;53.046;5.668;2022-09-25T21:08:39;101237.75;;;12.60;82.73
67099;BME280;54288;53.046;5.668;2022-09-25T21:11:05;101221.25;;;12.53;83.13
67099;BME280;54288;53.046;5.668;2022-09-25T21:13:34;101226.47;;;12.55;84.80
67099;BME280;54288;53.046;5.668;2022-09-25T21:16:09;101220.41;;;12.51;84.62
67099;BME280;54288;53.046;5.668;2022-09-25T21:18:35;101224.84;;;12.48;85.34
67099;BME280;54288;53.046;5.668;2022-09-25T21:21:04;101213.69;;;12.38;86.38
67099;BME280;54288;53.046;5.668;2022-09-25T21:23:30;101218.16;;;12.35;87.08
67099;BME280;54288;53.046;5.668;2022-09-25T21:26:06;101221.53;;;12.40;88.74
67099;BME280;54288;53.046;5.668;2022-09-25T21:28:35;101217.22;;;12.37;88.88
67099;BME280;54288;53.046;5.668;2022-09-25T21:31:07;101192.09;;;12.26;89.16
67099;BME280;54288;53.046;5.668;2022-09-25T21:33:34;101198.09;;;12.31;88.69
67099;BME280;54288;53.046;5.668;2022-09-25T21:36:00;101185.03;;;12.29;89.42
67099;BME280;54288;53.046;5.668;2022-09-25T21:38:26;101184.94;;;12.32;89.09
67099;BME280;54288;53.046;5.668;2022-09-25T21:40:59;101171.88;;;12.29;89.02
67099;BME280;54288;53.046;5.668;2022-09-25T21:43:29;101170.06;;;12.31;88.43
67099;BME280;54288;53.046;5.668;2022-09-25T21:46:01;101158.84;;;12.25;88.71
67099;BME280;54288;53.046;5.668;2022-09-25T21:48:27;101156.94;;;12.31;88.82
67099;BME280;54288;53.046;5.668;2022-09-25T21:50:56;101157.97;;;12.26;89.74
67099;BME280;54288;53.046;5.668;2022-09-25T21:53:24;101151.09;;;12.19;88.91
67099;BME280;54288;53.046;5.668;2022-09-25T21:56:00;101146.63;;;12.24;89.54
67099;BME280;54288;53.046;5.668;2022-09-25T21:58:26;101132.94;;;12.10;90.05
67099;BME280;54288;53.046;5.668;2022-09-25T22:01:04;101127.78;;;12.05;89.41
67099;BME280;54288;53.046;5.668;2022-09-25T22:03:35;101116.56;;;11.99;89.82
67099;BME280;54288;53.046;5.668;2022-09-25T22:06:04;101126.16;;;12.00;89.95
67099;BME280;54288;53.046;5.668;2022-09-25T22:08:33;101116.41;;;12.07;90.55
67099;BME280;54288;53.046;5.668;2022-09-25T22:11:01;101120.78;;;12.04;90.42
67099;BME280;54288;53.046;5.668;2022-09-25T22:13:29;101104.38;;;11.97;91.02
67099;BME280;54288;53.046;5.668;2022-09-25T22:19:43;101099.91;;;12.00;90.57
67099;BME280;54288;53.046;5.668;2022-09-25T22:22:09;101091.09;;;12.02;90.24
67099;BME280;54288;53.046;5.668;2022-09-25T22:24:34;101080.59;;;12.02;89.69
67099;BME280;54288;53.046;5.668;2022-09-25T22:27:00;101071.94;;;11.99;89.84
67099;BME280;54288;53.046;5.668;2022-09-25T22:29:26;101070.13;;;12.01;90.10
67099;BME280;54288;53.046;5.668;2022-09-25T22:31:52;101066.56;;;12.03;89.35